Barbera del Valles, Spain
Current Conditions -  °F | °C
As of 2:30 PM on Saturday 20 Dec 2014 (Local Time) from LELL Reporting Station
Few Clouds Few Clouds  
Wind Chill: 57°   Ceiling: Unl
Heat Index: 57°   Visibility: 6mi
Dew Point: 48°   Wind: 5mph
Humidity: 72%   Direction: 280°W
Pressure: 30.39"   Gusts: NA
Location:  41.52°N, 2.12°E
Report Text: LELL 201330Z 28004KT 250V320 9999 FEW030 14/09 Q1029
Loading
Personal Weather Stations






























Interactive Weather Map New forecast layout! Learn more

10-Day Weather Forecast

Advertisements
Track Severe Weather on mobile